Index of /ubuntu/dists

[ICO]NameLast modifiedSizeDescription

[PARENTDIR]Parent Directory  -  
[DIR]trusty/2015-10-07 13:44 -  
[DIR]xenial/2016-04-21 09:43 -  
[DIR]trusty-backports/2017-12-15 10:49 -  
[DIR]bionic/2018-04-27 01:38 -  
[DIR]focal/2020-04-23 19:34 -  
[DIR]trusty-security/2020-05-29 10:06 -  
[DIR]trusty-updates/2020-05-29 10:08 -  
[DIR]trusty-proposed/2020-06-06 08:57 -  
[DIR]jammy/2022-04-21 19:16 -  
[DIR]kinetic/2022-10-20 21:48 -  
[DIR]devel-security/2022-10-28 17:09 -  
[DIR]lunar-security/2022-10-28 17:09 -  
[DIR]devel-updates/2022-10-28 17:09 -  
[DIR]lunar-updates/2022-10-28 17:09 -  
[DIR]devel-backports/2022-10-28 17:10 -  
[DIR]lunar-backports/2022-10-28 17:10 -  
[DIR]xenial-proposed/2022-11-25 15:13 -  
[DIR]devel/2022-11-28 05:55 -  
[DIR]lunar/2022-11-28 05:55 -  
[DIR]devel-proposed/2022-11-28 05:55 -  
[DIR]lunar-proposed/2022-11-28 05:55 -  
[DIR]kinetic-security/2022-11-28 05:55 -  
[DIR]kinetic-updates/2022-11-28 05:55 -  
[DIR]kinetic-proposed/2022-11-28 05:56 -  
[DIR]kinetic-backports/2022-11-28 05:56 -  
[DIR]jammy-security/2022-11-28 05:56 -  
[DIR]jammy-updates/2022-11-28 05:57 -  
[DIR]jammy-proposed/2022-11-28 05:57 -  
[DIR]jammy-backports/2022-11-28 05:57 -  
[DIR]focal-security/2022-11-28 05:58 -  
[DIR]focal-updates/2022-11-28 05:59 -  
[DIR]focal-proposed/2022-11-28 06:00 -  
[DIR]focal-backports/2022-11-28 06:00 -  
[DIR]bionic-security/2022-11-28 06:01 -  
[DIR]bionic-updates/2022-11-28 06:03 -  
[DIR]bionic-proposed/2022-11-28 06:03 -  
[DIR]bionic-backports/2022-11-28 06:03 -  
[DIR]xenial-security/2022-11-28 06:04 -  
[DIR]xenial-updates/2022-11-28 06:05 -  
[DIR]xenial-backports/2022-11-28 06:05 -